sensor_id;sensor_type;location;lat;lon;timestamp;pressure;altitude;pressure_sealevel;temperature;humidity
3150;BME280;32503;47.748;8.960;2023-03-30T00:00:45;96808.25;;;16.37;51.23
3150;BME280;32503;47.748;8.960;2023-03-30T00:03:12;96799.31;;;16.36;51.13
3150;BME280;32503;47.748;8.960;2023-03-30T00:05:39;96805.16;;;16.35;51.30
3150;BME280;32503;47.748;8.960;2023-03-30T00:08:07;96802.81;;;16.37;51.58
3150;BME280;32503;47.748;8.960;2023-03-30T00:10:35;96804.78;;;16.36;51.66
3150;BME280;32503;47.748;8.960;2023-03-30T00:13:04;96795.78;;;16.32;51.46
3150;BME280;32503;47.748;8.960;2023-03-30T00:15:33;96799.72;;;16.27;52.01
3150;BME280;32503;47.748;8.960;2023-03-30T00:18:01;96788.44;;;16.25;51.55
3150;BME280;32503;47.748;8.960;2023-03-30T00:20:29;96783.75;;;16.22;51.96
3150;BME280;32503;47.748;8.960;2023-03-30T00:22:58;96782.56;;;16.20;51.82
3150;BME280;32503;47.748;8.960;2023-03-30T00:25:25;96780.66;;;16.13;52.21
3150;BME280;32503;47.748;8.960;2023-03-30T00:27:52;96773.28;;;16.06;52.79
3150;BME280;32503;47.748;8.960;2023-03-30T00:30:19;96786.50;;;16.11;52.49
3150;BME280;32503;47.748;8.960;2023-03-30T00:32:46;96779.47;;;16.10;52.70
3150;BME280;32503;47.748;8.960;2023-03-30T00:35:15;96766.25;;;16.09;52.64
3150;BME280;32503;47.748;8.960;2023-03-30T00:37:42;96769.38;;;16.00;53.12
3150;BME280;32503;47.748;8.960;2023-03-30T00:40:16;96746.81;;;15.85;53.23
3150;BME280;32503;47.748;8.960;2023-03-30T00:42:45;96755.38;;;15.87;53.84
3150;BME280;32503;47.748;8.960;2023-03-30T00:45:19;96749.56;;;15.75;54.02
3150;BME280;32503;47.748;8.960;2023-03-30T00:47:53;96742.13;;;15.68;53.90
3150;BME280;32503;47.748;8.960;2023-03-30T00:50:26;96741.38;;;15.64;54.40
3150;BME280;32503;47.748;8.960;2023-03-30T00:52:56;96737.84;;;15.60;54.07
3150;BME280;32503;47.748;8.960;2023-03-30T00:55:28;96732.78;;;15.62;54.65
3150;BME280;32503;47.748;8.960;2023-03-30T00:57:57;96731.22;;;15.64;54.46
3150;BME280;32503;47.748;8.960;2023-03-30T01:00:25;96742.50;;;15.66;54.45
3150;BME280;32503;47.748;8.960;2023-03-30T01:02:58;96737.44;;;15.65;54.97
3150;BME280;32503;47.748;8.960;2023-03-30T01:05:28;96737.06;;;15.63;54.76
3150;BME280;32503;47.748;8.960;2023-03-30T01:07:57;96740.94;;;15.51;55.04
3150;BME280;32503;47.748;8.960;2023-03-30T01:10:24;96741.34;;;15.49;55.37
3150;BME280;32503;47.748;8.960;2023-03-30T01:12:52;96741.75;;;15.44;55.17
3150;BME280;32503;47.748;8.960;2023-03-30T01:15:20;96740.94;;;15.44;55.51
3150;BME280;32503;47.748;8.960;2023-03-30T01:18:12;96747.19;;;15.44;55.10
3150;BME280;32503;47.748;8.960;2023-03-30T01:25:13;96731.25;;;15.25;55.86
3150;BME280;32503;47.748;8.960;2023-03-30T01:28:18;96737.47;;;15.25;56.46
3150;BME280;32503;47.748;8.960;2023-03-30T01:31:21;96734.34;;;15.23;56.29
3150;BME280;32503;47.748;8.960;2023-03-30T01:34:22;96734.72;;;15.22;56.34
3150;BME280;32503;47.748;8.960;2023-03-30T01:40:13;96730.81;;;15.08;56.67
3150;BME280;32503;47.748;8.960;2023-03-30T01:42:49;96725.75;;;15.03;56.99
3150;BME280;32503;47.748;8.960;2023-03-30T01:45:29;96738.59;;;15.06;56.67
3150;BME280;32503;47.748;8.960;2023-03-30T01:48:07;96737.44;;;15.07;56.54
3150;BME280;32503;47.748;8.960;2023-03-30T01:50:39;96733.53;;;15.01;56.63
3150;BME280;32503;47.748;8.960;2023-03-30T01:53:13;96751.44;;;15.09;56.35
3150;BME280;32503;47.748;8.960;2023-03-30T01:55:45;96749.88;;;15.08;56.78
3150;BME280;32503;47.748;8.960;2023-03-30T01:58:19;96751.44;;;15.13;56.11
3150;BME280;32503;47.748;8.960;2023-03-30T02:00:49;96752.22;;;15.06;56.46
3150;BME280;32503;47.748;8.960;2023-03-30T02:03:20;96754.56;;;15.11;56.46
3150;BME280;32503;47.748;8.960;2023-03-30T02:05:52;96753.78;;;15.11;57.25
3150;BME280;32503;47.748;8.960;2023-03-30T02:08:23;96753.78;;;15.07;57.03
3150;BME280;32503;47.748;8.960;2023-03-30T02:10:54;96747.13;;;14.90;57.63
3150;BME280;32503;47.748;8.960;2023-03-30T02:13:25;96761.50;;;14.91;57.92
3150;BME280;32503;47.748;8.960;2023-03-30T02:15:58;96747.50;;;14.92;57.47
3150;BME280;32503;47.748;8.960;2023-03-30T02:18:25;96754.88;;;14.85;58.19
3150;BME280;32503;47.748;8.960;2023-03-30T02:20:52;96768.50;;;14.85;58.79
3150;BME280;32503;47.748;8.960;2023-03-30T02:23:22;96776.28;;;14.86;59.34
3150;BME280;32503;47.748;8.960;2023-03-30T02:25:53;96760.69;;;14.72;59.68
3150;BME280;32503;47.748;8.960;2023-03-30T02:28:21;96750.16;;;14.60;59.82
3150;BME280;32503;47.748;8.960;2023-03-30T02:30:48;96764.94;;;14.77;60.14
3150;BME280;32503;47.748;8.960;2023-03-30T02:33:24;96758.31;;;14.64;60.26
3150;BME280;32503;47.748;8.960;2023-03-30T02:36:15;96759.47;;;14.66;61.11
3150;BME280;32503;47.748;8.960;2023-03-30T02:39:08;96755.97;;;14.66;61.49
3150;BME280;32503;47.748;8.960;2023-03-30T02:42:10;96738.78;;;14.40;61.25
3150;BME280;32503;47.748;8.960;2023-03-30T02:44:45;96754.34;;;14.54;61.93
3150;BME280;32503;47.748;8.960;2023-03-30T02:47:22;96750.06;;;14.49;61.81
3150;BME280;32503;47.748;8.960;2023-03-30T02:49:59;96743.06;;;14.48;62.26
3150;BME280;32503;47.748;8.960;2023-03-30T02:52:40;96727.50;;;14.49;61.91
3150;BME280;32503;47.748;8.960;2023-03-30T02:55:17;96714.69;;;14.46;62.12
3150;BME280;32503;47.748;8.960;2023-03-30T02:57:59;96693.72;;;14.46;62.30
3150;BME280;32503;47.748;8.960;2023-03-30T03:00:35;96692.16;;;14.49;62.75
3150;BME280;32503;47.748;8.960;2023-03-30T03:03:10;96669.25;;;14.46;62.58
3150;BME280;32503;47.748;8.960;2023-03-30T03:05:39;96648.22;;;14.32;64.40
3150;BME280;32503;47.748;8.960;2023-03-30T03:08:07;96664.16;;;14.37;64.62
3150;BME280;32503;47.748;8.960;2023-03-30T03:10:35;96662.94;;;14.24;65.93
3150;BME280;32503;47.748;8.960;2023-03-30T03:13:03;96656.69;;;14.16;66.22
3150;BME280;32503;47.748;8.960;2023-03-30T03:15:30;96633.75;;;14.03;66.40
3150;BME280;32503;47.748;8.960;2023-03-30T03:17:57;96639.22;;;14.14;66.11
3150;BME280;32503;47.748;8.960;2023-03-30T03:20:25;96640.00;;;14.18;66.08
3150;BME280;32503;47.748;8.960;2023-03-30T03:22:55;96645.06;;;14.16;66.43
3150;BME280;32503;47.748;8.960;2023-03-30T03:25:22;96634.16;;;14.09;66.26
3150;BME280;32503;47.748;8.960;2023-03-30T03:27:49;96634.97;;;14.20;66.07
3150;BME280;32503;47.748;8.960;2023-03-30T03:30:17;96629.53;;;14.20;65.75
3150;BME280;32503;47.748;8.960;2023-03-30T03:32:44;96606.59;;;14.07;65.83
3150;BME280;32503;47.748;8.960;2023-03-30T03:35:12;96612.44;;;14.19;65.64
3150;BME280;32503;47.748;8.960;2023-03-30T03:37:39;96613.22;;;14.23;65.79
3150;BME280;32503;47.748;8.960;2023-03-30T03:40:07;96611.25;;;14.20;66.38
3150;BME280;32503;47.748;8.960;2023-03-30T03:42:36;96615.88;;;14.06;67.47
3150;BME280;32503;47.748;8.960;2023-03-30T03:45:05;96618.59;;;14.02;67.62
3150;BME280;32503;47.748;8.960;2023-03-30T03:47:34;96612.78;;;14.03;67.48
3150;BME280;32503;47.748;8.960;2023-03-30T03:50:01;96613.56;;;14.04;67.77
3150;BME280;32503;47.748;8.960;2023-03-30T03:52:31;96607.34;;;14.07;67.86
3150;BME280;32503;47.748;8.960;2023-03-30T03:54:58;96604.25;;;14.09;67.68
3150;BME280;32503;47.748;8.960;2023-03-30T03:57:25;96587.94;;;14.09;67.46
3150;BME280;32503;47.748;8.960;2023-03-30T03:59:52;96583.28;;;14.06;67.50
3150;BME280;32503;47.748;8.960;2023-03-30T04:02:21;96576.69;;;14.07;67.25
3150;BME280;32503;47.748;8.960;2023-03-30T04:04:50;96573.66;;;14.44;70.61
3150;BME280;32503;47.748;8.960;2023-03-30T04:07:18;96556.22;;;14.95;70.46
3150;BME280;32503;47.748;8.960;2023-03-30T04:09:46;96562.41;;;15.03;69.10
3150;BME280;32503;47.748;8.960;2023-03-30T04:12:13;96559.31;;;14.94;68.36
3150;BME280;32503;47.748;8.960;2023-03-30T04:14:40;96561.66;;;14.85;67.85
3150;BME280;32503;47.748;8.960;2023-03-30T04:17:07;96556.22;;;14.77;67.17
3150;BME280;32503;47.748;8.960;2023-03-30T04:19:34;96546.50;;;14.62;66.07
3150;BME280;32503;47.748;8.960;2023-03-30T04:22:03;96556.22;;;14.59;66.07
3150;BME280;32503;47.748;8.960;2023-03-30T04:24:31;96553.06;;;14.50;66.36
3150;BME280;32503;47.748;8.960;2023-03-30T04:27:00;96545.28;;;14.45;66.28
3150;BME280;32503;47.748;8.960;2023-03-30T04:29:27;96546.06;;;14.38;66.31
3150;BME280;32503;47.748;8.960;2023-03-30T04:31:55;96549.56;;;14.28;66.60
3150;BME280;32503;47.748;8.960;2023-03-30T04:34:27;96549.16;;;14.22;66.91
3150;BME280;32503;47.748;8.960;2023-03-30T04:36:58;96544.47;;;14.19;67.04
3150;BME280;32503;47.748;8.960;2023-03-30T04:39:28;96542.13;;;14.03;67.67
3150;BME280;32503;47.748;8.960;2023-03-30T04:41:55;96529.66;;;13.95;68.12
3150;BME280;32503;47.748;8.960;2023-03-30T04:44:22;96519.16;;;13.90;68.07
3150;BME280;32503;47.748;8.960;2023-03-30T04:46:50;96491.47;;;13.45;68.49
3150;BME280;32503;47.748;8.960;2023-03-30T04:49:17;96498.44;;;13.46;68.14
3150;BME280;32503;47.748;8.960;2023-03-30T04:51:44;96525.22;;;13.48;68.16
3150;BME280;32503;47.748;8.960;2023-03-30T04:54:11;96515.53;;;13.43;68.41
3150;BME280;32503;47.748;8.960;2023-03-30T04:56:40;96530.69;;;13.55;68.13
3150;BME280;32503;47.748;8.960;2023-03-30T04:59:07;96512.41;;;13.48;67.81
3150;BME280;32503;47.748;8.960;2023-03-30T05:01:34;96521.78;;;13.54;67.63
3150;BME280;32503;47.748;8.960;2023-03-30T05:04:01;96520.19;;;13.53;67.85
3150;BME280;32503;47.748;8.960;2023-03-30T05:06:28;96513.22;;;13.52;67.89
3150;BME280;32503;47.748;8.960;2023-03-30T05:08:57;96519.81;;;13.51;68.06
3150;BME280;32503;47.748;8.960;2023-03-30T05:11:24;96516.31;;;13.51;68.12
3150;BME280;32503;47.748;8.960;2023-03-30T05:13:52;96531.84;;;13.46;68.43
3150;BME280;32503;47.748;8.960;2023-03-30T05:16:20;96531.03;;;13.46;68.28
3150;BME280;32503;47.748;8.960;2023-03-30T05:18:47;96531.03;;;13.46;68.37
3150;BME280;32503;47.748;8.960;2023-03-30T05:21:14;96541.91;;;13.46;68.22
3150;BME280;32503;47.748;8.960;2023-03-30T05:23:41;96537.63;;;13.45;68.25
3150;BME280;32503;47.748;8.960;2023-03-30T05:26:08;96535.69;;;13.45;68.23
3150;BME280;32503;47.748;8.960;2023-03-30T05:28:38;96525.22;;;13.48;68.10
3150;BME280;32503;47.748;8.960;2023-03-30T05:31:06;96510.88;;;13.43;67.97
3150;BME280;32503;47.748;8.960;2023-03-30T05:33:33;96525.63;;;13.50;67.83
3150;BME280;32503;47.748;8.960;2023-03-30T05:36:01;96525.25;;;13.51;67.88
3150;BME280;32503;47.748;8.960;2023-03-30T05:38:28;96534.56;;;13.50;67.92
3150;BME280;32503;47.748;8.960;2023-03-30T05:40:55;96547.31;;;13.46;68.04
3150;BME280;32503;47.748;8.960;2023-03-30T05:43:23;96552.75;;;13.46;68.38
3150;BME280;32503;47.748;8.960;2023-03-30T05:45:50;96558.97;;;13.46;68.45
3150;BME280;32503;47.748;8.960;2023-03-30T05:48:18;96555.88;;;13.48;68.28
3150;BME280;32503;47.748;8.960;2023-03-30T05:50:46;96520.13;;;13.39;68.08
3150;BME280;32503;47.748;8.960;2023-03-30T05:53:13;96556.31;;;13.54;67.96
3150;BME280;32503;47.748;8.960;2023-03-30T05:55:43;96546.63;;;13.60;67.69
3150;BME280;32503;47.748;8.960;2023-03-30T05:58:11;96566.00;;;13.58;68.01
3150;BME280;32503;47.748;8.960;2023-03-30T06:00:39;96565.63;;;13.56;67.71
3150;BME280;32503;47.748;8.960;2023-03-30T06:03:07;96549.72;;;13.62;67.90
3150;BME280;32503;47.748;8.960;2023-03-30T06:05:36;96562.94;;;13.67;67.50
3150;BME280;32503;47.748;8.960;2023-03-30T06:08:04;96551.31;;;13.67;67.41
3150;BME280;32503;47.748;8.960;2023-03-30T06:10:33;96526.44;;;13.54;67.29
3150;BME280;32503;47.748;8.960;2023-03-30T06:13:00;96514.00;;;13.56;67.89
3150;BME280;32503;47.748;8.960;2023-03-30T06:15:28;96531.13;;;13.68;67.53
3150;BME280;32503;47.748;8.960;2023-03-30T06:17:55;96533.47;;;13.73;67.63
3150;BME280;32503;47.748;8.960;2023-03-30T06:20:24;96544.34;;;13.73;67.76
3150;BME280;32503;47.748;8.960;2023-03-30T06:22:52;96542.03;;;13.75;67.70
3150;BME280;32503;47.748;8.960;2023-03-30T06:25:19;96520.25;;;13.64;68.00
3150;BME280;32503;47.748;8.960;2023-03-30T06:27:48;96530.41;;;13.81;67.82
3150;BME280;32503;47.748;8.960;2023-03-30T06:30:16;96526.94;;;13.88;67.76
3150;BME280;32503;47.748;8.960;2023-03-30T06:32:43;96538.19;;;13.94;67.90
3150;BME280;32503;47.748;8.960;2023-03-30T06:35:10;96527.34;;;14.01;67.49
3150;BME280;32503;47.748;8.960;2023-03-30T06:37:38;96532.78;;;14.01;67.25
3150;BME280;32503;47.748;8.960;2023-03-30T06:40:08;96544.47;;;14.16;67.49
3150;BME280;32503;47.748;8.960;2023-03-30T06:42:38;96520.41;;;14.18;67.19
3150;BME280;32503;47.748;8.960;2023-03-30T06:45:06;96514.97;;;14.25;66.92
3150;BME280;32503;47.748;8.960;2023-03-30T06:47:34;96503.31;;;14.25;67.14
3150;BME280;32503;47.748;8.960;2023-03-30T06:50:02;96493.22;;;14.18;66.92
3150;BME280;32503;47.748;8.960;2023-03-30T06:52:33;96498.66;;;14.36;67.26
3150;BME280;32503;47.748;8.960;2023-03-30T06:55:01;96499.44;;;14.36;66.94
3150;BME280;32503;47.748;8.960;2023-03-30T06:57:29;96525.47;;;14.41;67.17
3150;BME280;32503;47.748;8.960;2023-03-30T06:59:57;96523.94;;;14.51;67.20
3150;BME280;32503;47.748;8.960;2023-03-30T07:02:24;96521.22;;;14.51;66.63
3150;BME280;32503;47.748;8.960;2023-03-30T07:04:51;96534.47;;;14.63;66.74
3150;BME280;32503;47.748;8.960;2023-03-30T07:07:18;96551.16;;;14.72;66.43
3150;BME280;32503;47.748;8.960;2023-03-30T07:09:45;96539.91;;;14.85;66.02
3150;BME280;32503;47.748;8.960;2023-03-30T07:12:12;96543.00;;;14.87;65.77
3150;BME280;32503;47.748;8.960;2023-03-30T07:14:41;96560.47;;;14.93;65.79
3150;BME280;32503;47.748;8.960;2023-03-30T07:17:08;96575.66;;;14.97;65.70
3150;BME280;32503;47.748;8.960;2023-03-30T07:19:35;96553.13;;;14.75;65.85
3150;BME280;32503;47.748;8.960;2023-03-30T07:22:02;96595.47;;;14.98;66.22
3150;BME280;32503;47.748;8.960;2023-03-30T07:24:29;96576.41;;;14.91;66.72
3150;BME280;32503;47.748;8.960;2023-03-30T07:26:58;96576.84;;;14.96;66.73
3150;BME280;32503;47.748;8.960;2023-03-30T07:29:25;96587.72;;;15.00;67.00
3150;BME280;32503;47.748;8.960;2023-03-30T07:31:54;96587.72;;;15.07;66.32
3150;BME280;32503;47.748;8.960;2023-03-30T07:34:22;96563.22;;;15.00;66.13
3150;BME280;32503;47.748;8.960;2023-03-30T07:36:49;96603.22;;;15.35;65.89
3150;BME280;32503;47.748;8.960;2023-03-30T07:39:16;96581.41;;;15.50;65.84
3150;BME280;32503;47.748;8.960;2023-03-30T07:41:44;96569.38;;;15.33;64.90
3150;BME280;32503;47.748;8.960;2023-03-30T07:44:11;96595.03;;;15.53;64.64
3150;BME280;32503;47.748;8.960;2023-03-30T07:46:38;96594.22;;;15.67;64.31
3150;BME280;32503;47.748;8.960;2023-03-30T07:49:07;96587.97;;;15.81;63.98
3150;BME280;32503;47.748;8.960;2023-03-30T07:51:34;96585.56;;;15.98;63.92
3150;BME280;32503;47.748;8.960;2023-03-30T07:54:02;96586.25;;;16.13;63.12
3150;BME280;32503;47.748;8.960;2023-03-30T07:56:29;96573.72;;;16.26;63.15
3150;BME280;32503;47.748;8.960;2023-03-30T07:58:58;96586.94;;;16.35;62.39
3150;BME280;32503;47.748;8.960;2023-03-30T08:01:25;96584.94;;;16.42;62.36
3150;BME280;32503;47.748;8.960;2023-03-30T08:03:52;96589.63;;;16.42;60.90
3150;BME280;32503;47.748;8.960;2023-03-30T08:06:20;96600.13;;;16.43;60.51
3150;BME280;32503;47.748;8.960;2023-03-30T08:08:48;96587.25;;;16.44;60.37
3150;BME280;32503;47.748;8.960;2023-03-30T08:11:15;96591.16;;;16.43;60.79
3150;BME280;32503;47.748;8.960;2023-03-30T08:13:42;96587.69;;;16.39;60.90
3150;BME280;32503;47.748;8.960;2023-03-30T08:16:09;96576.44;;;16.29;61.14
3150;BME280;32503;47.748;8.960;2023-03-30T08:18:36;96585.00;;;16.32;61.23
3150;BME280;32503;47.748;8.960;2023-03-30T08:21:06;96586.56;;;16.29;61.71
3150;BME280;32503;47.748;8.960;2023-03-30T08:23:35;96589.28;;;16.33;61.99
3150;BME280;32503;47.748;8.960;2023-03-30T08:26:02;96583.84;;;16.29;61.60
3150;BME280;32503;47.748;8.960;2023-03-30T08:28:29;96592.06;;;16.25;61.58
3150;BME280;32503;47.748;8.960;2023-03-30T08:31:03;96592.44;;;16.24;61.24
3150;BME280;32503;47.748;8.960;2023-03-30T08:33:31;96589.75;;;16.20;60.96
3150;BME280;32503;47.748;8.960;2023-03-30T08:35:58;96577.19;;;16.34;61.08
3150;BME280;32503;47.748;8.960;2023-03-30T08:38:25;96568.91;;;16.48;60.62
3150;BME280;32503;47.748;8.960;2023-03-30T08:40:53;96564.03;;;16.77;59.54
3150;BME280;32503;47.748;8.960;2023-03-30T08:43:35;96557.44;;;17.20;58.46
3150;BME280;32503;47.748;8.960;2023-03-30T08:46:09;96573.09;;;17.54;57.94
3150;BME280;32503;47.748;8.960;2023-03-30T08:48:38;96570.59;;;17.70;57.42
3150;BME280;32503;47.748;8.960;2023-03-30T08:51:18;96577.09;;;17.80;56.99
3150;BME280;32503;47.748;8.960;2023-03-30T08:53:48;96575.88;;;17.85;57.00
3150;BME280;32503;47.748;8.960;2023-03-30T08:56:21;96566.53;;;17.82;56.70
3150;BME280;32503;47.748;8.960;2023-03-30T08:58:58;96582.56;;;17.80;56.58
3150;BME280;32503;47.748;8.960;2023-03-30T09:01:35;96589.28;;;17.75;56.84
3150;BME280;32503;47.748;8.960;2023-03-30T09:04:16;96580.06;;;17.58;56.22
3150;BME280;32503;47.748;8.960;2023-03-30T09:06:49;96580.59;;;17.46;56.63
3150;BME280;32503;47.748;8.960;2023-03-30T09:09:21;96605.97;;;17.47;57.00
3150;BME280;32503;47.748;8.960;2023-03-30T09:11:58;96600.19;;;17.37;56.95
3150;BME280;32503;47.748;8.960;2023-03-30T09:14:33;96605.69;;;17.34;57.12
3150;BME280;32503;47.748;8.960;2023-03-30T09:17:07;96620.19;;;17.27;56.51
3150;BME280;32503;47.748;8.960;2023-03-30T09:19:47;96610.47;;;17.26;56.28
3150;BME280;32503;47.748;8.960;2023-03-30T09:22:15;96618.66;;;17.26;55.34
3150;BME280;32503;47.748;8.960;2023-03-30T09:24:44;96637.00;;;17.22;54.96
3150;BME280;32503;47.748;8.960;2023-03-30T09:27:17;96657.38;;;17.17;55.13
3150;BME280;32503;47.748;8.960;2023-03-30T09:29:48;96669.88;;;17.11;54.40
3150;BME280;32503;47.748;8.960;2023-03-30T09:32:23;96694.13;;;17.05;54.28
3150;BME280;32503;47.748;8.960;2023-03-30T09:34:59;96686.00;;;16.95;54.16
3150;BME280;32503;47.748;8.960;2023-03-30T09:37:28;96696.16;;;16.94;54.38
3150;BME280;32503;47.748;8.960;2023-03-30T09:39:56;96703.56;;;16.90;56.28
3150;BME280;32503;47.748;8.960;2023-03-30T09:42:32;96721.56;;;16.80;58.46
3150;BME280;32503;47.748;8.960;2023-03-30T09:45:10;96726.28;;;16.65;59.55
3150;BME280;32503;47.748;8.960;2023-03-30T09:47:41;96710.38;;;16.53;59.99
3150;BME280;32503;47.748;8.960;2023-03-30T09:50:11;96719.78;;;16.41;60.42
3150;BME280;32503;47.748;8.960;2023-03-30T09:52:54;96748.28;;;16.29;61.22
3150;BME280;32503;47.748;8.960;2023-03-30T09:55:28;96748.69;;;16.24;62.54
3150;BME280;32503;47.748;8.960;2023-03-30T09:58:13;96759.63;;;16.10;63.47
3150;BME280;32503;47.748;8.960;2023-03-30T10:00:42;96777.16;;;16.02;64.27
3150;BME280;32503;47.748;8.960;2023-03-30T10:03:19;96791.19;;;15.97;64.57
3150;BME280;32503;47.748;8.960;2023-03-30T10:06:01;96797.41;;;15.90;65.16
3150;BME280;32503;47.748;8.960;2023-03-30T10:08:29;96806.78;;;15.92;65.51
3150;BME280;32503;47.748;8.960;2023-03-30T10:10:58;96800.94;;;15.83;66.57
3150;BME280;32503;47.748;8.960;2023-03-30T10:13:32;96804.44;;;15.80;67.31
3150;BME280;32503;47.748;8.960;2023-03-30T10:16:05;96800.13;;;15.61;66.76
3150;BME280;32503;47.748;8.960;2023-03-30T10:18:38;96782.63;;;15.51;65.87
3150;BME280;32503;47.748;8.960;2023-03-30T10:21:16;96786.47;;;15.29;66.03
3150;BME280;32503;47.748;8.960;2023-03-30T10:23:45;96779.06;;;15.26;66.13
3150;BME280;32503;47.748;8.960;2023-03-30T10:26:15;96760.78;;;15.26;66.37
3150;BME280;32503;47.748;8.960;2023-03-30T10:28:56;96764.69;;;15.25;66.74
3150;BME280;32503;47.748;8.960;2023-03-30T10:31:28;96774.03;;;15.28;66.82
3150;BME280;32503;47.748;8.960;2023-03-30T10:33:57;96772.47;;;15.38;67.15
3150;BME280;32503;47.748;8.960;2023-03-30T10:36:29;96761.22;;;15.57;66.94
3150;BME280;32503;47.748;8.960;2023-03-30T10:39:06;96769.78;;;15.77;66.61
3150;BME280;32503;47.748;8.960;2023-03-30T10:41:35;96779.53;;;15.85;65.84
3150;BME280;32503;47.748;8.960;2023-03-30T10:44:18;96783.41;;;15.91;66.09
3150;BME280;32503;47.748;8.960;2023-03-30T10:46:51;96781.84;;;15.98;65.65
3150;BME280;32503;47.748;8.960;2023-03-30T10:49:30;96776.78;;;15.92;66.11
3150;BME280;32503;47.748;8.960;2023-03-30T10:52:06;96782.63;;;15.95;65.79
3150;BME280;32503;47.748;8.960;2023-03-30T10:54:39;96787.31;;;15.98;65.57
3150;BME280;32503;47.748;8.960;2023-03-30T10:57:11;96780.28;;;15.89;65.74
3150;BME280;32503;47.748;8.960;2023-03-30T11:00:13;96798.22;;;15.94;65.21
3150;BME280;32503;47.748;8.960;2023-03-30T11:02:55;96799.38;;;15.89;65.21
3150;BME280;32503;47.748;8.960;2023-03-30T11:05:28;96804.06;;;15.89;65.23
3150;BME280;32503;47.748;8.960;2023-03-30T11:08:01;96786.13;;;15.84;64.88
3150;BME280;32503;47.748;8.960;2023-03-30T11:10:31;96799.75;;;15.84;64.76
3150;BME280;32503;47.748;8.960;2023-03-30T11:13:04;96794.31;;;15.77;64.86
3150;BME280;32503;47.748;8.960;2023-03-30T11:15:38;96794.66;;;15.72;65.05
3150;BME280;32503;47.748;8.960;2023-03-30T11:18:13;96797.44;;;15.76;64.93
3150;BME280;32503;47.748;8.960;2023-03-30T11:20:46;96790.41;;;15.71;65.57
3150;BME280;32503;47.748;8.960;2023-03-30T11:23:23;96793.53;;;15.73;65.79
3150;BME280;32503;47.748;8.960;2023-03-30T11:25:59;96793.53;;;15.80;65.50
3150;BME280;32503;47.748;8.960;2023-03-30T11:28:45;96795.09;;;15.81;65.38
3150;BME280;32503;47.748;8.960;2023-03-30T11:31:38;96806.41;;;15.87;65.80
3150;BME280;32503;47.748;8.960;2023-03-30T11:34:18;96800.16;;;15.79;65.64
3150;BME280;32503;47.748;8.960;2023-03-30T11:36:58;96802.88;;;15.86;65.15
3150;BME280;32503;47.748;8.960;2023-03-30T11:39:31;96798.22;;;15.80;65.59
3150;BME280;32503;47.748;8.960;2023-03-30T11:42:09;96806.78;;;15.78;65.71
3150;BME280;32503;47.748;8.960;2023-03-30T11:44:39;96812.59;;;15.73;65.58
3150;BME280;32503;47.748;8.960;2023-03-30T11:47:28;96799.00;;;15.80;65.47
3150;BME280;32503;47.748;8.960;2023-03-30T11:50:10;96801.72;;;15.77;66.23
3150;BME280;32503;47.748;8.960;2023-03-30T11:52:47;96796.66;;;15.79;66.02
3150;BME280;32503;47.748;8.960;2023-03-30T11:55:33;96793.94;;;15.82;66.40
3150;BME280;32503;47.748;8.960;2023-03-30T11:58:17;96803.69;;;15.83;66.66
3150;BME280;32503;47.748;8.960;2023-03-30T12:00:56;96807.16;;;15.87;66.76
3150;BME280;32503;47.748;8.960;2023-03-30T12:03:45;96808.31;;;15.90;66.34
3150;BME280;32503;47.748;8.960;2023-03-30T12:06:29;96813.38;;;15.84;66.57
3150;BME280;32503;47.748;8.960;2023-03-30T12:09:13;96798.97;;;15.69;66.84
3150;BME280;32503;47.748;8.960;2023-03-30T12:11:47;96817.66;;;15.71;66.97
3150;BME280;32503;47.748;8.960;2023-03-30T12:14:32;96817.66;;;15.64;67.23
3150;BME280;32503;47.748;8.960;2023-03-30T12:17:06;96819.19;;;15.65;66.88
3150;BME280;32503;47.748;8.960;2023-03-30T12:19:42;96823.88;;;15.68;66.72
3150;BME280;32503;47.748;8.960;2023-03-30T12:22:15;96835.16;;;15.63;67.05
3150;BME280;32503;47.748;8.960;2023-03-30T12:24:52;96848.00;;;15.59;67.47
3150;BME280;32503;47.748;8.960;2023-03-30T12:27:20;96843.31;;;15.52;67.07
3150;BME280;32503;47.748;8.960;2023-03-30T12:29:50;96838.25;;;15.43;67.81
3150;BME280;32503;47.748;8.960;2023-03-30T12:32:24;96835.53;;;15.43;67.52
3150;BME280;32503;47.748;8.960;2023-03-30T12:34:53;96823.84;;;15.39;67.82
3150;BME280;32503;47.748;8.960;2023-03-30T12:37:22;96822.28;;;15.27;67.63
3150;BME280;32503;47.748;8.960;2023-03-30T12:39:55;96819.13;;;15.14;66.72
3150;BME280;32503;47.748;8.960;2023-03-30T12:42:26;96818.31;;;15.10;66.32
3150;BME280;32503;47.748;8.960;2023-03-30T12:45:28;96808.22;;;15.04;66.52
3150;BME280;32503;47.748;8.960;2023-03-30T12:48:24;96806.25;;;14.97;66.42
3150;BME280;32503;47.748;8.960;2023-03-30T12:51:06;96804.31;;;15.05;66.57
3150;BME280;32503;47.748;8.960;2023-03-30T12:54:23;96803.19;;;15.13;66.65
3150;BME280;32503;47.748;8.960;2023-03-30T12:56:58;96797.75;;;15.16;66.67
3150;BME280;32503;47.748;8.960;2023-03-30T13:03:10;96789.56;;;15.20;67.59
3150;BME280;32503;47.748;8.960;2023-03-30T13:05:43;96780.22;;;15.21;67.66
3150;BME280;32503;47.748;8.960;2023-03-30T13:08:21;96778.69;;;15.31;67.24
3150;BME280;32503;47.748;8.960;2023-03-30T13:11:07;96779.47;;;15.39;67.13
3150;BME280;32503;47.748;8.960;2023-03-30T13:13:53;96769.38;;;15.43;66.95
3150;BME280;32503;47.748;8.960;2023-03-30T13:17:14;96753.81;;;15.50;66.27
3150;BME280;32503;47.748;8.960;2023-03-30T13:19:46;96748.34;;;15.50;66.11
3150;BME280;32503;47.748;8.960;2023-03-30T13:22:27;96746.41;;;15.54;65.94
3150;BME280;32503;47.748;8.960;2023-03-30T13:25:01;96736.69;;;15.61;65.59
3150;BME280;32503;47.748;8.960;2023-03-30T13:27:33;96730.84;;;15.87;64.68
3150;BME280;32503;47.748;8.960;2023-03-30T13:30:03;96729.63;;;16.10;64.23
3150;BME280;32503;47.748;8.960;2023-03-30T13:32:52;96726.06;;;16.35;63.85
3150;BME280;32503;47.748;8.960;2023-03-30T13:35:35;96727.84;;;16.70;63.25
3150;BME280;32503;47.748;8.960;2023-03-30T13:38:38;96729.19;;;17.11;62.00
3150;BME280;32503;47.748;8.960;2023-03-30T13:41:28;96743.03;;;17.38;60.46
3150;BME280;32503;47.748;8.960;2023-03-30T13:44:14;96737.56;;;17.41;59.51
3150;BME280;32503;47.748;8.960;2023-03-30T13:46:49;96746.44;;;17.56;59.97
3150;BME280;32503;47.748;8.960;2023-03-30T13:49:35;96758.50;;;17.59;59.47